Time;durP1;ratioP1;P1;durP2;ratioP2;P2;SDS_P1;SDS_P2;PMS_P1;PMS_P2;Temp;Humidity;BMP_temperature;BMP_pressure;BME280_temperature;BME280_humidity;BME280_pressure;Samples;Min_cycle;Max_cycle;Signal;HPM_P1;HPM_P2
2023/04/02 00:00:09;;;;;;;1.48;1.20;;;;;;;;;;4971026;28;20051;-76
2023/04/02 00:02:45;;;;;;;3.90;1.25;;;;;;;;;;4963531;28;20047;-78
2023/04/02 00:05:18;;;;;;;1.60;1.20;;;;;;;;;;4964420;28;20608;-77
2023/04/02 00:07:56;;;;;;;0.90;0.90;;;;;;;;;;4967936;28;20413;-78
2023/04/02 00:10:35;;;;;;;1.10;1.00;;;;;;;;;;4965785;28;20070;-77
2023/04/02 00:13:09;;;;;;;1.90;1.10;;;;;;;;;;4948587;28;20054;-78
2023/04/02 00:15:40;;;;;;;4.80;1.20;;;;;;;;;;4961004;28;20475;-76
2023/04/02 00:18:10;;;;;;;4.25;1.33;;;;;;;;;;4961352;28;20043;-77
2023/04/02 00:20:41;;;;;;;2.53;1.23;;;;;;;;;;4961192;28;20051;-78
2023/04/02 00:23:13;;;;;;;2.00;1.67;;;;;;;;;;5022102;23;20050;-84
2023/04/02 00:25:45;;;;;;;2.15;1.95;;;;;;;;;;4975056;28;20034;-84
2023/04/02 00:28:13;;;;;;;1.77;1.67;;;;;;;;;;4959333;28;20094;-83
2023/04/02 00:30:51;;;;;;;1.98;1.60;;;;;;;;;;4956953;28;20039;-83
2023/04/02 00:33:20;;;;;;;2.05;1.25;;;;;;;;;;4983343;28;20093;-84
2023/04/02 00:35:50;;;;;;;0.88;0.88;;;;;;;;;;4993574;28;20511;-83
2023/04/02 00:38:21;;;;;;;1.40;1.30;;;;;;;;;;4976779;28;20047;-84
2023/04/02 00:40:49;;;;;;;0.75;0.75;;;;;;;;;;4978276;28;20062;-84
2023/04/02 00:43:16;;;;;;;3.90;1.10;;;;;;;;;;4973959;28;20511;-84
2023/04/02 00:45:49;;;;;;;0.95;0.80;;;;;;;;;;4971602;28;20050;-84
2023/04/02 00:48:25;;;;;;;2.30;0.82;;;;;;;;;;4953568;28;20376;-84
2023/04/02 00:50:53;;;;;;;1.02;0.93;;;;;;;;;;4971763;28;20053;-83
2023/04/02 00:53:28;;;;;;;0.90;0.90;;;;;;;;;;4971436;28;20492;-84
2023/04/02 00:55:57;;;;;;;1.67;1.00;;;;;;;;;;4953572;28;20473;-85
2023/04/02 00:58:24;;;;;;;0.80;0.80;;;;;;;;;;4971524;28;20075;-84
2023/04/02 01:00:52;;;;;;;0.88;0.73;;;;;;;;;;4971378;28;20074;-84
2023/04/02 01:03:21;;;;;;;0.80;0.80;;;;;;;;;;4971334;28;20050;-84
2023/04/02 01:05:55;;;;;;;1.58;0.80;;;;;;;;;;4954886;28;20046;-83
2023/04/02 01:08:30;;;;;;;0.90;0.90;;;;;;;;;;4967991;28;20051;-85
2023/04/02 01:10:57;;;;;;;1.63;1.00;;;;;;;;;;4953817;28;20054;-84
2023/04/02 01:13:35;;;;;;;3.90;2.92;;;;;;;;;;4952779;28;20512;-84
2023/04/02 01:16:03;;;;;;;1.60;1.50;;;;;;;;;;4967752;28;20105;-84
2023/04/02 01:18:45;;;;;;;1.85;0.90;;;;;;;;;;4966970;28;20348;-84
2023/04/02 01:21:12;;;;;;;;;;;;;;;;;;4968706;28;20043;-84
2023/04/02 01:23:53;;;;;;;0.77;0.75;;;;;;;;;;4952889;28;20271;-84
2023/04/02 01:26:39;;;;;;;0.77;0.70;;;;;;;;;;4952510;28;20520;-83
2023/04/02 01:29:20;;;;;;;0.63;0.63;;;;;;;;;;4968723;28;20075;-83
2023/04/02 01:31:49;;;;;;;0.88;0.88;;;;;;;;;;4952851;28;20050;-84
2023/04/02 01:34:21;;;;;;;1.00;0.82;;;;;;;;;;4969630;28;20047;-84
2023/04/02 01:37:00;;;;;;;2.40;0.85;;;;;;;;;;4966942;28;21780;-84
2023/04/02 01:39:38;;;;;;;1.30;0.90;;;;;;;;;;4969894;28;20043;-83
2023/04/02 01:42:09;;;;;;;2.15;0.90;;;;;;;;;;4949775;28;20465;-84
2023/04/02 01:44:42;;;;;;;0.80;0.80;;;;;;;;;;4970506;28;20043;-84
2023/04/02 01:47:11;;;;;;;0.85;0.80;;;;;;;;;;4971223;28;20077;-83
2023/04/02 01:49:39;;;;;;;4.10;0.85;;;;;;;;;;4952587;28;20508;-84
2023/04/02 01:52:06;;;;;;;1.90;0.90;;;;;;;;;;4953386;28;20043;-84
2023/04/02 01:54:36;;;;;;;0.65;0.65;;;;;;;;;;4974050;28;20042;-84
2023/04/02 01:57:04;;;;;;;1.35;0.50;;;;;;;;;;4955232;28;20047;-84
2023/04/02 01:59:34;;;;;;;1.40;0.88;;;;;;;;;;4991531;28;20057;-84
2023/04/02 02:02:03;;;;;;;;;;;;;;;;;;4971592;28;20115;-84
2023/04/02 02:04:33;;;;;;;0.85;0.60;;;;;;;;;;4980679;28;19932;-83
2023/04/02 02:07:01;;;;;;;1.00;1.00;;;;;;;;;;4965198;28;20137;-84
2023/04/02 02:09:34;;;;;;;0.90;0.70;;;;;;;;;;4960566;28;20130;-85
2023/04/02 02:12:03;;;;;;;1.63;0.90;;;;;;;;;;4966660;28;20500;-83
2023/04/02 02:14:31;;;;;;;1.90;1.10;;;;;;;;;;4970927;28;20039;-84
2023/04/02 02:17:03;;;;;;;1.02;0.75;;;;;;;;;;4974653;28;20042;-83
2023/04/02 02:19:42;;;;;;;2.63;1.15;;;;;;;;;;4971667;28;20055;-83
2023/04/02 02:22:30;;;;;;;0.70;0.70;;;;;;;;;;4972157;28;20134;-83
2023/04/02 02:24:59;;;;;;;1.50;0.73;;;;;;;;;;4989054;28;20051;-84
2023/04/02 02:27:27;;;;;;;0.70;0.70;;;;;;;;;;4977219;28;20113;-83
2023/04/02 02:30:06;;;;;;;1.75;0.95;;;;;;;;;;4993285;28;20500;-84
2023/04/02 02:32:40;;;;;;;1.20;0.90;;;;;;;;;;4976484;28;20035;-83
2023/04/02 02:35:14;;;;;;;1.40;1.25;;;;;;;;;;4977230;28;20030;-85
2023/04/02 02:37:49;;;;;;;2.10;0.93;;;;;;;;;;4963612;28;20043;-84
2023/04/02 02:40:20;;;;;;;0.95;0.80;;;;;;;;;;4973376;28;20090;-84
2023/04/02 02:42:50;;;;;;;0.80;0.80;;;;;;;;;;4973842;28;20051;-84
2023/04/02 02:45:20;;;;;;;1.50;0.90;;;;;;;;;;4955662;28;20590;-84
2023/04/02 02:47:49;;;;;;;0.98;0.90;;;;;;;;;;4959087;28;20515;-84
2023/04/02 02:50:22;;;;;;;2.58;1.08;;;;;;;;;;4956019;28;20047;-83
2023/04/02 02:52:54;;;;;;;2.10;1.10;;;;;;;;;;4955731;28;20043;-83
2023/04/02 02:55:26;;;;;;;0.80;0.80;;;;;;;;;;4955919;28;20508;-83
2023/04/02 02:58:26;;;;;;;0.93;0.93;;;;;;;;;;4955005;28;20046;-83
2023/04/02 03:01:14;;;;;;;2.28;0.80;;;;;;;;;;4970661;28;20067;-83
2023/04/02 03:03:43;;;;;;;3.22;0.80;;;;;;;;;;4946246;28;20097;-83
2023/04/02 03:06:15;;;;;;;0.90;0.90;;;;;;;;;;4955235;28;20053;-83
2023/04/02 03:08:51;;;;;;;0.68;0.60;;;;;;;;;;4959648;28;20055;-83
2023/04/02 03:11:32;;;;;;;2.42;1.10;;;;;;;;;;4957101;28;20051;-84
2023/04/02 03:14:11;;;;;;;1.23;1.00;;;;;;;;;;4956210;28;20059;-83
2023/04/02 03:16:45;;;;;;;1.75;1.00;;;;;;;;;;4973630;28;20046;-84
2023/04/02 03:19:12;;;;;;;3.13;0.90;;;;;;;;;;4971540;28;20074;-84
2023/04/02 03:21:52;;;;;;;0.95;0.88;;;;;;;;;;4975952;28;20057;-84
2023/04/02 03:24:20;;;;;;;1.02;0.60;;;;;;;;;;4975936;28;20054;-83
2023/04/02 03:27:03;;;;;;;1.40;1.30;;;;;;;;;;4966975;28;20050;-84
2023/04/02 03:29:32;;;;;;;1.23;1.13;;;;;;;;;;4974480;28;20061;-84
2023/04/02 03:32:11;;;;;;;1.23;0.98;;;;;;;;;;4978637;28;20527;-84
2023/04/02 03:34:46;;;;;;;0.95;0.95;;;;;;;;;;4954973;28;20504;-83
2023/04/02 03:37:16;;;;;;;0.88;0.70;;;;;;;;;;4973150;28;20122;-84
2023/04/02 03:39:46;;;;;;;2.75;1.30;;;;;;;;;;4956511;28;20066;-84
2023/04/02 03:42:26;;;;;;;1.92;1.50;;;;;;;;;;4956143;28;20133;-84
2023/04/02 03:45:01;;;;;;;1.25;0.80;;;;;;;;;;4955942;28;20054;-84
2023/04/02 03:47:37;;;;;;;2.50;1.00;;;;;;;;;;4955508;28;20046;-82
2023/04/02 03:50:18;;;;;;;0.95;0.95;;;;;;;;;;4952996;28;20086;-83
2023/04/02 03:52:46;;;;;;;1.23;1.05;;;;;;;;;;4973449;28;20065;-84
2023/04/02 03:55:18;;;;;;;;;;;;;;;;;;4957057;28;20062;-83
2023/04/02 03:58:01;;;;;;;0.60;0.60;;;;;;;;;;4978658;28;20350;-84
2023/04/02 04:00:40;;;;;;;0.80;0.80;;;;;;;;;;4975295;28;20594;-82
2023/04/02 04:03:14;;;;;;;2.38;0.55;;;;;;;;;;4975228;28;20546;-83
2023/04/02 04:05:51;;;;;;;1.48;0.90;;;;;;;;;;4966276;28;20118;-84
2023/04/02 04:08:25;;;;;;;0.80;0.80;;;;;;;;;;4955359;28;20049;-84
2023/04/02 04:10:54;;;;;;;1.27;0.80;;;;;;;;;;4956427;28;20053;-82
2023/04/02 04:13:27;;;;;;;1.42;0.88;;;;;;;;;;4956367;28;20367;-83
2023/04/02 04:16:01;;;;;;;1.42;0.70;;;;;;;;;;4956497;28;20043;-83
2023/04/02 04:18:33;;;;;;;1.67;0.77;;;;;;;;;;4955769;28;20070;-83
2023/04/02 04:21:35;;;;;;;2.30;0.90;;;;;;;;;;4955959;28;20035;-83
2023/04/02 04:24:21;;;;;;;1.60;0.88;;;;;;;;;;4969737;28;20134;-83
2023/04/02 04:26:52;;;;;;;1.65;0.90;;;;;;;;;;4955243;28;20656;-83
2023/04/02 04:29:26;;;;;;;1.00;0.88;;;;;;;;;;4954797;28;20117;-83
2023/04/02 04:31:54;;;;;;;0.60;0.60;;;;;;;;;;4955445;28;20051;-82
2023/04/02 04:34:45;;;;;;;1.95;0.80;;;;;;;;;;4954514;28;20468;-83
2023/04/02 04:37:23;;;;;;;1.10;0.90;;;;;;;;;;4954817;28;20438;-83
2023/04/02 04:39:55;;;;;;;1.00;0.93;;;;;;;;;;4958348;28;20043;-82
2023/04/02 04:42:26;;;;;;;1.00;0.90;;;;;;;;;;4955018;28;20099;-83
2023/04/02 04:45:02;;;;;;;3.92;0.70;;;;;;;;;;4955070;28;20530;-83
2023/04/02 04:47:43;;;;;;;0.60;0.60;;;;;;;;;;4955335;28;20117;-83
2023/04/02 04:50:22;;;;;;;0.90;0.85;;;;;;;;;;4969740;28;20361;-84
2023/04/02 04:52:50;;;;;;;4.40;1.00;;;;;;;;;;4964434;28;20500;-83
2023/04/02 04:55:30;;;;;;;2.28;0.90;;;;;;;;;;4966062;28;20046;-83
2023/04/02 04:58:19;;;;;;;1.05;0.95;;;;;;;;;;4979375;28;20050;-84
2023/04/02 05:00:47;;;;;;;1.20;0.80;;;;;;;;;;4973415;28;20052;-83
2023/04/02 05:03:30;;;;;;;1.40;1.08;;;;;;;;;;4991360;28;20046;-83
2023/04/02 05:06:00;;;;;;;1.65;0.77;;;;;;;;;;4962682;28;20055;-83
2023/04/02 05:08:32;;;;;;;0.75;0.60;;;;;;;;;;4955396;28;20081;-83
2023/04/02 05:11:07;;;;;;;0.50;0.40;;;;;;;;;;4973362;28;20054;-83
2023/04/02 05:13:38;;;;;;;1.98;0.90;;;;;;;;;;4956158;28;20050;-83
2023/04/02 05:16:28;;;;;;;1.55;0.90;;;;;;;;;;4955584;28;20120;-83
2023/04/02 05:18:55;;;;;;;0.90;0.90;;;;;;;;;;4956605;28;20308;-83
2023/04/02 05:21:28;;;;;;;1.52;1.00;;;;;;;;;;4956521;28;20051;-83
2023/04/02 05:24:17;;;;;;;0.93;0.70;;;;;;;;;;4957946;28;20113;-84
2023/04/02 05:26:46;;;;;;;1.52;0.80;;;;;;;;;;4974852;28;20037;-84
2023/04/02 05:29:16;;;;;;;1.00;0.85;;;;;;;;;;4992498;28;20058;-83
2023/04/02 05:31:46;;;;;;;;;;;;;;;;;;4976260;28;20058;-83
2023/04/02 05:34:22;;;;;;;1.48;0.80;;;;;;;;;;4991545;28;19937;-84
2023/04/02 05:36:50;;;;;;;1.60;1.00;;;;;;;;;;4974084;28;20429;-84
2023/04/02 05:39:21;;;;;;;0.90;0.90;;;;;;;;;;4975411;28;20055;-84
2023/04/02 05:42:10;;;;;;;3.60;1.20;;;;;;;;;;4952632;28;20424;-84
2023/04/02 05:44:57;;;;;;;0.65;0.60;;;;;;;;;;4967581;28;20059;-84
2023/04/02 05:47:28;;;;;;;0.95;0.90;;;;;;;;;;4971295;28;20055;-84
2023/04/02 05:50:09;;;;;;;2.13;0.93;;;;;;;;;;4970995;28;20137;-84
2023/04/02 05:52:45;;;;;;;2.45;1.10;;;;;;;;;;4953311;28;20050;-84
2023/04/02 05:55:13;;;;;;;1.00;0.85;;;;;;;;;;4934092;29;20047;-83
2023/04/02 05:57:52;;;;;;;1.58;0.80;;;;;;;;;;4934478;29;20492;-83
2023/04/02 06:00:40;;;;;;;1.17;0.70;;;;;;;;;;4949555;28;20125;-84
2023/04/02 06:03:22;;;;;;;1.50;0.88;;;;;;;;;;4952821;28;20043;-85
2023/04/02 06:05:52;;;;;;;1.10;1.02;;;;;;;;;;4952384;28;20057;-84
2023/04/02 06:08:26;;;;;;;2.63;1.85;;;;;;;;;;4970512;28;20110;-84
2023/04/02 06:11:13;;;;;;;1.35;1.08;;;;;;;;;;4978524;28;20050;-84
2023/04/02 06:13:42;;;;;;;2.83;1.83;;;;;;;;;;4969535;28;20051;-84
2023/04/02 06:16:12;;;;;;;2.63;1.75;;;;;;;;;;4975629;28;20043;-84
2023/04/02 06:18:42;;;;;;;2.57;2.20;;;;;;;;;;4977601;28;20026;-84
2023/04/02 06:21:11;;;;;;;2.03;1.58;;;;;;;;;;4967199;28;20337;-85
2023/04/02 06:23:55;;;;;;;2.15;1.95;;;;;;;;;;4986466;28;20062;-85
2023/04/02 06:26:24;;;;;;;2.50;2.30;;;;;;;;;;4958973;28;20055;-86
2023/04/02 06:29:13;;;;;;;3.75;2.70;;;;;;;;;;4953172;28;20046;-85
2023/04/02 06:31:44;;;;;;;4.15;3.30;;;;;;;;;;4969654;28;20171;-84
2023/04/02 06:34:16;;;;;;;2.67;2.22;;;;;;;;;;4961457;28;20491;-83
2023/04/02 06:36:51;;;;;;;4.47;3.00;;;;;;;;;;4957002;28;22167;-84
2023/04/02 06:39:21;;;;;;;2.95;2.40;;;;;;;;;;4953780;28;20062;-83
2023/04/02 06:42:03;;;;;;;1.95;1.85;;;;;;;;;;4976637;28;20046;-84
2023/04/02 06:44:49;;;;;;;2.78;1.40;;;;;;;;;;4969827;28;20046;-84
2023/04/02 06:47:41;;;;;;;2.10;1.90;;;;;;;;;;4981101;28;20057;-84
2023/04/02 06:50:15;;;;;;;2.50;1.50;;;;;;;;;;4959094;28;20046;-84
2023/04/02 06:52:45;;;;;;;1.27;1.27;;;;;;;;;;4979029;28;20050;-84
2023/04/02 06:55:24;;;;;;;2.72;1.38;;;;;;;;;;4964739;28;20049;-84
2023/04/02 06:57:51;;;;;;;3.58;1.80;;;;;;;;;;4964568;28;20050;-84
2023/04/02 07:00:25;;;;;;;1.00;1.00;;;;;;;;;;4960025;28;20516;-84
2023/04/02 07:02:55;;;;;;;2.58;1.40;;;;;;;;;;4959961;28;20428;-84
2023/04/02 07:05:22;;;;;;;1.85;1.40;;;;;;;;;;4964321;28;20058;-84
2023/04/02 07:07:50;;;;;;;3.13;1.88;;;;;;;;;;4959575;28;20049;-84
2023/04/02 07:10:19;;;;;;;10.40;5.57;;;;;;;;;;4965713;28;20054;-83
2023/04/02 07:12:47;;;;;;;2.30;1.98;;;;;;;;;;4963795;28;21165;-85
2023/04/02 07:15:16;;;;;;;4.72;3.10;;;;;;;;;;4980289;28;20463;-83
2023/04/02 07:17:43;;;;;;;4.90;2.67;;;;;;;;;;4965177;28;20049;-84
2023/04/02 07:20:40;;;;;;;3.65;2.72;;;;;;;;;;4981483;28;20117;-85
2023/04/02 07:23:12;;;;;;;2.28;1.08;;;;;;;;;;4954547;28;20047;-84
2023/04/02 07:25:42;;;;;;;4.10;1.63;;;;;;;;;;4982958;28;20132;-84
2023/04/02 07:28:12;;;;;;;1.60;1.50;;;;;;;;;;4980902;28;20050;-83
2023/04/02 07:30:40;;;;;;;2.30;1.80;;;;;;;;;;4975509;28;20310;-84
2023/04/02 07:33:09;;;;;;;4.05;3.03;;;;;;;;;;4976099;28;20042;-83
2023/04/02 07:35:37;;;;;;;3.28;2.92;;;;;;;;;;4985362;28;20034;-84
2023/04/02 07:38:05;;;;;;;3.65;3.30;;;;;;;;;;4959154;28;20073;-83
2023/04/02 07:40:32;;;;;;;6.45;4.18;;;;;;;;;;4979631;28;20037;-83
2023/04/02 07:42:59;;;;;;;5.50;3.97;;;;;;;;;;4994215;28;20046;-83
2023/04/02 07:45:27;;;;;;;5.50;3.70;;;;;;;;;;4995237;28;20023;-83
2023/04/02 07:47:54;;;;;;;3.35;2.78;;;;;;;;;;4995137;28;20049;-83
2023/04/02 07:50:22;;;;;;;61.10;42.50;;;;;;;;;;4990570;28;20038;-83
2023/04/02 07:52:49;;;;;;;2.60;2.40;;;;;;;;;;4989494;28;20058;-83
2023/04/02 07:55:17;;;;;;;3.03;1.83;;;;;;;;;;4964938;28;20456;-82
2023/04/02 07:57:49;;;;;;;2.65;1.70;;;;;;;;;;4983419;28;20046;-83
2023/04/02 08:00:16;;;;;;;;;;;;;;;;;;4971912;28;20058;-83
2023/04/02 08:02:43;;;;;;;3.47;1.80;;;;;;;;;;4989311;28;19928;-83
2023/04/02 08:05:11;;;;;;;1.88;1.65;;;;;;;;;;4986953;28;20407;-82
2023/04/02 08:07:39;;;;;;;1.90;1.70;;;;;;;;;;4987574;28;20079;-83
2023/04/02 08:10:07;;;;;;;2.67;1.83;;;;;;;;;;4970465;28;20051;-83
2023/04/02 08:12:35;;;;;;;3.38;2.00;;;;;;;;;;4992324;28;20046;-83
2023/04/02 08:15:04;;;;;;;2.30;1.77;;;;;;;;;;4970032;28;20054;-83
2023/04/02 08:17:32;;;;;;;6.22;4.05;;;;;;;;;;4988688;28;20089;-82
2023/04/02 08:20:00;;;;;;;2.20;1.70;;;;;;;;;;4986336;28;20508;-82
2023/04/02 08:22:28;;;;;;;3.03;2.20;;;;;;;;;;4966105;28;20051;-82
2023/04/02 08:24:56;;;;;;;2.50;1.25;;;;;;;;;;4998892;28;20214;-83
2023/04/02 08:27:24;;;;;;;4.30;1.63;;;;;;;;;;5000873;28;20432;-82
2023/04/02 08:29:51;;;;;;;1.50;1.40;;;;;;;;;;4990661;28;20122;-82
2023/04/02 08:32:19;;;;;;;2.47;1.55;;;;;;;;;;4989897;28;20074;-84
2023/04/02 08:34:46;;;;;;;3.08;1.67;;;;;;;;;;4985160;28;20102;-82
2023/04/02 08:37:14;;;;;;;1.52;1.27;;;;;;;;;;4977923;28;20086;-83
2023/04/02 08:39:41;;;;;;;1.95;1.60;;;;;;;;;;4979148;28;20047;-84
2023/04/02 08:42:20;;;;;;;3.28;1.55;;;;;;;;;;4974964;28;20046;-83
2023/04/02 08:44:51;;;;;;;3.50;1.65;;;;;;;;;;4983938;28;20053;-83
2023/04/02 08:47:19;;;;;;;1.55;1.45;;;;;;;;;;4987054;28;20055;-82
2023/04/02 08:49:46;;;;;;;1.38;1.27;;;;;;;;;;4985864;28;20050;-82
2023/04/02 08:52:20;;;;;;;1.50;1.40;;;;;;;;;;4984619;28;20064;-82
2023/04/02 08:54:47;;;;;;;2.28;2.00;;;;;;;;;;4980912;28;20058;-82
2023/04/02 08:57:21;;;;;;;2.17;1.77;;;;;;;;;;4983487;28;20585;-83
2023/04/02 09:00:08;;;;;;;2.40;1.63;;;;;;;;;;4982309;28;20047;-82
2023/04/02 09:02:42;;;;;;;1.95;1.85;;;;;;;;;;4974914;28;20134;-82
2023/04/02 09:05:17;;;;;;;3.13;1.50;;;;;;;;;;4972995;28;20499;-83
2023/04/02 09:07:46;;;;;;;1.52;1.42;;;;;;;;;;4991042;28;20047;-82
2023/04/02 09:10:16;;;;;;;1.20;1.20;;;;;;;;;;4990511;28;20107;-81
2023/04/02 09:12:46;;;;;;;2.85;1.40;;;;;;;;;;4978345;28;20322;-83
2023/04/02 09:15:13;;;;;;;1.98;1.60;;;;;;;;;;4961515;28;20039;-82
2023/04/02 09:17:41;;;;;;;1.60;1.50;;;;;;;;;;4977305;28;20047;-83
2023/04/02 09:20:25;;;;;;;1.48;1.38;;;;;;;;;;4977482;28;20650;-83
2023/04/02 09:22:53;;;;;;;3.03;1.67;;;;;;;;;;4979026;28;20042;-82
2023/04/02 09:25:22;;;;;;;1.23;1.15;;;;;;;;;;4974967;28;20236;-83
2023/04/02 09:27:51;;;;;;;1.65;1.55;;;;;;;;;;4973730;28;20109;-82
2023/04/02 09:30:28;;;;;;;1.40;1.30;;;;;;;;;;4971992;28;20050;-83
2023/04/02 09:32:57;;;;;;;1.67;1.58;;;;;;;;;;4977049;28;20551;-83
2023/04/02 09:35:25;;;;;;;3.28;1.70;;;;;;;;;;4975168;28;20061;-82
2023/04/02 09:38:11;;;;;;;1.45;1.30;;;;;;;;;;4974456;28;20049;-82
2023/04/02 09:40:48;;;;;;;1.45;1.35;;;;;;;;;;4974071;28;20069;-83
2023/04/02 09:43:17;;;;;;;2.72;1.70;;;;;;;;;;4973838;28;20134;-83
2023/04/02 09:45:54;;;;;;;1.90;1.80;;;;;;;;;;4972799;28;20054;-83
2023/04/02 09:48:29;;;;;;;1.13;1.13;;;;;;;;;;4970242;28;20043;-83
2023/04/02 09:51:05;;;;;;;1.88;1.55;;;;;;;;;;4972085;28;20047;-83
2023/04/02 09:53:36;;;;;;;1.20;1.05;;;;;;;;;;4969847;28;20110;-83
2023/04/02 09:56:08;;;;;;;1.13;1.08;;;;;;;;;;4967298;28;20543;-82
2023/04/02 09:58:36;;;;;;;2.50;1.00;;;;;;;;;;4968918;28;20046;-83
2023/04/02 10:01:03;;;;;;;2.05;1.23;;;;;;;;;;4972084;28;20054;-83
2023/04/02 10:03:32;;;;;;;1.05;1.05;;;;;;;;;;4970800;28;20579;-83
2023/04/02 10:06:07;;;;;;;3.22;1.45;;;;;;;;;;4954777;28;20090;-83
2023/04/02 10:08:36;;;;;;;2.53;1.48;;;;;;;;;;4974542;28;20042;-83
2023/04/02 10:11:05;;;;;;;1.38;1.27;;;;;;;;;;4972321;28;20528;-83
2023/04/02 10:13:42;;;;;;;1.67;1.05;;;;;;;;;;4969828;28;20478;-83
2023/04/02 10:16:19;;;;;;;3.50;1.42;;;;;;;;;;4974011;28;20074;-83
2023/04/02 10:18:46;;;;;;;2.83;1.60;;;;;;;;;;4971076;28;20074;-83
2023/04/02 10:21:18;;;;;;;4.43;1.88;;;;;;;;;;4975108;28;20043;-82
2023/04/02 10:23:46;;;;;;;1.85;1.30;;;;;;;;;;4973925;28;20042;-82
2023/04/02 10:26:27;;;;;;;1.50;1.40;;;;;;;;;;4957019;28;20051;-82
2023/04/02 10:29:07;;;;;;;3.13;1.33;;;;;;;;;;4979731;28;20051;-83
2023/04/02 10:31:53;;;;;;;0.90;0.90;;;;;;;;;;4958501;28;20053;-83
2023/04/02 10:34:23;;;;;;;1.42;1.33;;;;;;;;;;4977859;28;20031;-80
2023/04/02 10:37:14;;;;;;;2.03;1.45;;;;;;;;;;4992575;28;20064;-81
2023/04/02 10:39:47;;;;;;;1.95;1.30;;;;;;;;;;4954030;28;20504;-80
2023/04/02 10:42:38;;;;;;;2.13;1.50;;;;;;;;;;4994171;28;20054;-82
2023/04/02 10:45:20;;;;;;;1.63;1.45;;;;;;;;;;4984084;28;20058;-82
2023/04/02 10:48:04;;;;;;;2.22;1.70;;;;;;;;;;4973986;28;20070;-81
2023/04/02 10:51:04;;;;;;;3.00;1.73;;;;;;;;;;4978427;28;20737;-82
2023/04/02 10:53:31;;;;;;;4.05;1.52;;;;;;;;;;4937226;28;20046;-82
2023/04/02 10:56:02;;;;;;;2.38;2.13;;;;;;;;;;4969612;28;20062;-83
2023/04/02 10:58:31;;;;;;;1.92;1.48;;;;;;;;;;4972950;28;20049;-83
2023/04/02 11:01:03;;;;;;;4.30;1.80;;;;;;;;;;4974476;28;20077;-82
2023/04/02 11:03:30;;;;;;;5.32;1.70;;;;;;;;;;4976812;28;20045;-83
2023/04/02 11:05:59;;;;;;;2.17;1.98;;;;;;;;;;4979138;28;20043;-82
2023/04/02 11:08:43;;;;;;;2.75;1.88;;;;;;;;;;4984353;28;20047;-83
2023/04/02 11:11:13;;;;;;;2.20;1.85;;;;;;;;;;4990117;28;20059;-83
2023/04/02 11:13:48;;;;;;;2.05;1.70;;;;;;;;;;4997497;28;20077;-83
2023/04/02 11:16:16;;;;;;;1.90;1.80;;;;;;;;;;4997010;28;20092;-82
2023/04/02 11:19:03;;;;;;;2.15;1.92;;;;;;;;;;4998056;28;20492;-82
2023/04/02 11:21:37;;;;;;;1.70;1.60;;;;;;;;;;4996219;28;20073;-83
2023/04/02 11:24:38;;;;;;;1.13;1.13;;;;;;;;;;4977185;28;20047;-81
2023/04/02 11:27:13;;;;;;;1.40;1.30;;;;;;;;;;4994254;28;20050;-83
2023/04/02 11:29:43;;;;;;;2.60;1.55;;;;;;;;;;4995577;28;20364;-83
2023/04/02 11:32:15;;;;;;;2.28;2.00;;;;;;;;;;4993041;28;20046;-81
2023/04/02 11:34:42;;;;;;;;;;;;;;;;;;4969320;28;20060;-82
2023/04/02 11:37:11;;;;;;;1.85;1.75;;;;;;;;;;4977191;28;19926;-81
2023/04/02 11:39:56;;;;;;;2.00;1.88;;;;;;;;;;4975495;28;20057;-81
2023/04/02 11:42:26;;;;;;;2.28;1.67;;;;;;;;;;4988087;28;20069;-81
2023/04/02 11:44:54;;;;;;;1.73;1.63;;;;;;;;;;4990908;28;20083;-83
2023/04/02 11:47:21;;;;;;;1.67;1.58;;;;;;;;;;4991570;28;20074;-84
2023/04/02 11:49:57;;;;;;;2.05;1.83;;;;;;;;;;4986991;28;20043;-82
2023/04/02 11:52:28;;;;;;;1.35;1.35;;;;;;;;;;4985651;28;20051;-83
2023/04/02 11:55:00;;;;;;;2.55;1.67;;;;;;;;;;4987299;28;20054;-82
2023/04/02 11:57:29;;;;;;;1.80;1.70;;;;;;;;;;4990001;28;20132;-83
2023/04/02 12:00:07;;;;;;;1.40;1.30;;;;;;;;;;4997499;28;20045;-82
2023/04/02 12:02:38;;;;;;;1.65;1.40;;;;;;;;;;4987680;28;20031;-83
2023/04/02 12:05:08;;;;;;;1.67;1.58;;;;;;;;;;4976630;28;20046;-82
2023/04/02 12:07:52;;;;;;;1.70;1.60;;;;;;;;;;4984778;28;20046;-82
2023/04/02 12:10:20;;;;;;;1.85;1.70;;;;;;;;;;4990800;28;20389;-83
2023/04/02 12:12:49;;;;;;;2.40;2.10;;;;;;;;;;4978621;28;20131;-83
2023/04/02 12:15:35;;;;;;;2.78;2.38;;;;;;;;;;4990733;28;20467;-83
2023/04/02 12:18:05;;;;;;;1.80;1.70;;;;;;;;;;4996621;28;20050;-82
2023/04/02 12:20:33;;;;;;;1.85;1.75;;;;;;;;;;4983175;28;20055;-83
2023/04/02 12:23:01;;;;;;;2.45;2.25;;;;;;;;;;5047013;23;20578;-79
2023/04/02 12:25:39;;;;;;;3.53;2.80;;;;;;;;;;4958560;28;20054;-82
2023/04/02 12:28:08;;;;;;;2.67;2.47;;;;;;;;;;4954872;28;20051;-80
2023/04/02 12:30:36;;;;;;;3.47;2.40;;;;;;;;;;4955191;28;20051;-81
2023/04/02 12:33:19;;;;;;;2.13;1.92;;;;;;;;;;4966155;28;20049;-82
2023/04/02 12:35:49;;;;;;;6.05;4.53;;;;;;;;;;4963762;28;20050;-79
2023/04/02 12:38:22;;;;;;;2.70;1.80;;;;;;;;;;4965879;28;20058;-80
2023/04/02 12:40:54;;;;;;;2.53;2.33;;;;;;;;;;4952034;28;20054;-79
2023/04/02 12:43:21;;;;;;;;;;;;;;;;;;4968772;28;20055;-80
2023/04/02 12:45:51;;;;;;;2.67;1.30;;;;;;;;;;4953307;28;20297;-81
2023/04/02 12:48:19;;;;;;;1.23;1.13;;;;;;;;;;4948700;28;20075;-81
2023/04/02 12:50:47;;;;;;;1.13;1.10;;;;;;;;;;4962038;28;20156;-81
2023/04/02 12:53:22;;;;;;;1.35;1.23;;;;;;;;;;4936942;28;20055;-81
2023/04/02 12:55:50;;;;;;;0.68;0.68;;;;;;;;;;4930428;29;20114;-79
2023/04/02 12:58:24;;;;;;;1.10;1.00;;;;;;;;;;4949269;28;20054;-79
2023/04/02 13:00:52;;;;;;;1.10;0.90;;;;;;;;;;4950799;28;20039;-81
2023/04/02 13:03:21;;;;;;;1.00;0.70;;;;;;;;;;4931538;29;20095;-81
2023/04/02 13:05:50;;;;;;;0.85;0.85;;;;;;;;;;4931988;29;20098;-79
2023/04/02 13:08:56;;;;;;;2.00;0.80;;;;;;;;;;4932061;29;20523;-80
2023/04/02 13:11:33;;;;;;;0.60;0.60;;;;;;;;;;4906050;29;20095;-81
2023/04/02 13:14:01;;;;;;;1.02;0.60;;;;;;;;;;4945927;28;20078;-79
2023/04/02 13:16:33;;;;;;;0.77;0.70;;;;;;;;;;4948589;29;20097;-80
2023/04/02 13:19:09;;;;;;;0.90;0.90;;;;;;;;;;4949337;28;20348;-81
2023/04/02 13:21:37;;;;;;;0.90;0.70;;;;;;;;;;4932061;29;20062;-78
2023/04/02 13:24:05;;;;;;;1.27;0.65;;;;;;;;;;4931008;29;20067;-78
2023/04/02 13:26:32;;;;;;;0.50;0.50;;;;;;;;;;4947759;29;20055;-80
2023/04/02 13:29:01;;;;;;;1.73;0.75;;;;;;;;;;4957923;28;20527;-81
2023/04/02 13:31:29;;;;;;;0.85;0.73;;;;;;;;;;4929606;29;20667;-81
2023/04/02 13:33:57;;;;;;;2.60;1.00;;;;;;;;;;4937755;28;20432;-81
2023/04/02 13:36:27;;;;;;;0.88;0.75;;;;;;;;;;4970914;28;20062;-81
2023/04/02 13:38:55;;;;;;;1.25;1.17;;;;;;;;;;4964312;28;20129;-81
2023/04/02 13:41:27;;;;;;;2.10;0.80;;;;;;;;;;4945030;29;20050;-81
2023/04/02 13:43:56;;;;;;;1.73;1.13;;;;;;;;;;4948087;28;20051;-79
2023/04/02 13:46:25;;;;;;;1.02;1.02;;;;;;;;;;4959437;28;20047;-80
2023/04/02 13:48:53;;;;;;;2.15;0.70;;;;;;;;;;4950346;28;20051;-81
2023/04/02 13:51:23;;;;;;;0.80;0.80;;;;;;;;;;4945939;28;20074;-80
2023/04/02 13:53:56;;;;;;;0.68;0.68;;;;;;;;;;4938408;28;20047;-80
2023/04/02 13:56:24;;;;;;;0.88;0.88;;;;;;;;;;4961461;28;20571;-82
2023/04/02 13:58:51;;;;;;;2.50;0.60;;;;;;;;;;4959330;28;20057;-82
2023/04/02 14:01:20;;;;;;;1.42;0.93;;;;;;;;;;4961790;28;20536;-84
2023/04/02 14:03:47;;;;;;;1.95;0.80;;;;;;;;;;4956634;28;20047;-83
2023/04/02 14:06:17;;;;;;;0.95;0.70;;;;;;;;;;4974095;28;20453;-80
2023/04/02 14:08:54;;;;;;;1.08;1.08;;;;;;;;;;4975349;28;20137;-81
2023/04/02 14:11:28;;;;;;;23.80;16.58;;;;;;;;;;4976711;28;20055;-84
2023/04/02 14:14:14;;;;;;;2.15;1.58;;;;;;;;;;4976747;28;20169;-84
2023/04/02 14:16:47;;;;;;;1.80;1.70;;;;;;;;;;4976418;28;20093;-81
2023/04/02 14:19:31;;;;;;;1.90;1.80;;;;;;;;;;4958562;28;20039;-81
2023/04/02 14:22:08;;;;;;;2.03;1.92;;;;;;;;;;4977453;28;20050;-81
2023/04/02 14:24:47;;;;;;;2.03;1.92;;;;;;;;;;4974798;28;20086;-81
2023/04/02 14:27:30;;;;;;;2.20;2.10;;;;;;;;;;4974660;28;20057;-82
2023/04/02 14:30:02;;;;;;;2.28;2.08;;;;;;;;;;4972378;28;20055;-80
2023/04/02 14:32:44;;;;;;;2.75;2.65;;;;;;;;;;4939678;29;20556;-80
2023/04/02 14:35:12;;;;;;;2.30;2.20;;;;;;;;;;4966342;28;20305;-81
2023/04/02 14:38:05;;;;;;;2.70;2.60;;;;;;;;;;4971358;28;20374;-80
2023/04/02 14:40:35;;;;;;;2.40;2.20;;;;;;;;;;4969988;28;20047;-80
2023/04/02 14:43:06;;;;;;;319.73;128.32;;;;;;;;;;4970019;28;20050;-82
2023/04/02 14:45:54;;;;;;;2.40;2.30;;;;;;;;;;4968588;28;20503;-78
2023/04/02 14:48:40;;;;;;;2.78;2.58;;;;;;;;;;4964252;28;20075;-81
2023/04/02 14:51:14;;;;;;;2.15;2.05;;;;;;;;;;4956666;28;20472;-82
2023/04/02 14:53:51;;;;;;;23.50;18.42;;;;;;;;;;4960737;28;20330;-80
2023/04/02 14:56:20;;;;;;;5.68;5.18;;;;;;;;;;4956869;28;20051;-79
2023/04/02 14:58:54;;;;;;;3.60;3.30;;;;;;;;;;4958281;28;20130;-81
2023/04/02 15:01:24;;;;;;;3.10;2.90;;;;;;;;;;4958286;28;20490;-77
2023/04/02 15:04:01;;;;;;;3.00;2.80;;;;;;;;;;4954821;28;20063;-80
2023/04/02 15:06:37;;;;;;;2.80;2.70;;;;;;;;;;4941156;28;20382;-80
2023/04/02 15:09:16;;;;;;;175.13;155.20;;;;;;;;;;4965010;28;20052;-81
2023/04/02 15:11:49;;;;;;;3.22;3.03;;;;;;;;;;4964964;28;20046;-80
2023/04/02 15:14:28;;;;;;;3.08;2.88;;;;;;;;;;4958444;28;20085;-81
2023/04/02 15:16:56;;;;;;;3.45;3.25;;;;;;;;;;4961841;28;20081;-77
2023/04/02 15:19:24;;;;;;;2.92;2.72;;;;;;;;;;4962040;28;20050;-79
2023/04/02 15:21:57;;;;;;;2.80;2.60;;;;;;;;;;4956996;28;20047;-78